createdAt,value
2023-02-17T00:01:22.859Z,25.73
2023-02-17T00:03:51.680Z,22.83
2023-02-17T00:06:22.066Z,20.80
2023-02-17T00:08:50.538Z,23.70
2023-02-17T00:11:19.028Z,28.00
2023-02-17T00:13:47.482Z,28.15
2023-02-17T00:16:19.859Z,21.67
2023-02-17T00:18:48.681Z,23.02
2023-02-17T00:21:18.102Z,23.25
2023-02-17T00:23:46.315Z,25.90
2023-02-17T00:26:14.606Z,20.92
2023-02-17T00:28:43.728Z,20.13
2023-02-17T00:31:15.427Z,18.63
2023-02-17T00:33:44.940Z,20.48
2023-02-17T00:36:15.260Z,20.42
2023-02-17T00:38:43.185Z,18.02
2023-02-17T00:41:11.127Z,18.83
2023-02-17T00:43:39.060Z,17.42
2023-02-17T00:46:07.668Z,20.20
2023-02-17T00:48:35.821Z,16.80
2023-02-17T00:51:05.409Z,20.88
2023-02-17T00:53:36.306Z,21.05
2023-02-17T00:56:05.098Z,18.38
2023-02-17T00:58:33.193Z,17.75
2023-02-17T01:01:01.518Z,16.98
2023-02-17T01:03:29.632Z,16.45
2023-02-17T01:05:58.191Z,17.20
2023-02-17T01:08:27.465Z,14.63
2023-02-17T01:10:55.409Z,15.85
2023-02-17T01:13:23.293Z,16.05
2023-02-17T01:15:53.061Z,16.80
2023-02-17T01:18:23.819Z,17.42
2023-02-17T01:20:52.509Z,16.05
2023-02-17T01:23:20.397Z,18.13
2023-02-17T01:25:50.691Z,14.88
2023-02-17T01:28:21.091Z,17.50
2023-02-17T01:30:49.822Z,15.40
2023-02-17T01:33:18.092Z,14.45
2023-02-17T01:35:46.504Z,16.92
2023-02-17T01:38:14.451Z,18.10
2023-02-17T01:40:49.257Z,15.75
2023-02-17T01:43:18.764Z,15.23
2023-02-17T01:45:52.523Z,17.25
2023-02-17T01:48:23.617Z,15.55
2023-02-17T01:50:54.455Z,14.82
2023-02-17T01:53:25.901Z,17.98
2023-02-17T01:55:56.938Z,18.25
2023-02-17T01:58:27.295Z,14.98
2023-02-17T02:00:59.620Z,15.38
2023-02-17T02:03:29.289Z,15.27
2023-02-17T02:05:57.287Z,16.50
2023-02-17T02:08:31.718Z,18.17
2023-02-17T02:11:00.924Z,18.15
2023-02-17T02:13:28.837Z,15.95
2023-02-17T02:16:02.480Z,17.10
2023-02-17T02:18:45.129Z,16.23
2023-02-17T02:21:41.151Z,17.55
2023-02-17T02:24:22.103Z,20.23
2023-02-17T02:27:27.237Z,17.58
2023-02-17T02:30:04.839Z,18.35
2023-02-17T02:32:46.695Z,18.63
2023-02-17T02:35:17.769Z,14.27
2023-02-17T02:37:51.792Z,16.02
2023-02-17T02:40:24.408Z,16.20
2023-02-17T02:42:52.371Z,17.13
2023-02-17T02:45:20.958Z,17.33
2023-02-17T02:47:54.381Z,13.88
2023-02-17T02:50:39.224Z,16.67
2023-02-17T02:53:24.969Z,18.83
2023-02-17T02:55:57.636Z,17.92
2023-02-17T02:58:37.332Z,16.25
2023-02-17T03:01:13.901Z,14.43
2023-02-17T03:03:49.839Z,12.93
2023-02-17T03:06:27.722Z,16.15
2023-02-17T03:09:00.162Z,14.18
2023-02-17T03:11:33.191Z,15.88
2023-02-17T03:14:04.213Z,13.13
2023-02-17T03:16:33.767Z,14.38
2023-02-17T03:19:03.149Z,15.80
2023-02-17T03:21:38.927Z,14.45
2023-02-17T03:24:08.042Z,15.68
2023-02-17T03:26:36.029Z,16.30
2023-02-17T03:29:03.958Z,16.60
2023-02-17T03:31:32.436Z,15.73
2023-02-17T03:34:01.871Z,16.38
2023-02-17T03:36:31.093Z,17.00
2023-02-17T03:38:59.107Z,16.52
2023-02-17T03:41:27.111Z,15.15
2023-02-17T03:43:55.005Z,13.20
2023-02-17T03:46:22.967Z,12.60
2023-02-17T03:48:50.998Z,16.15
2023-02-17T03:51:22.189Z,16.77
2023-02-17T03:53:52.037Z,17.45
2023-02-17T03:56:20.257Z,16.83
2023-02-17T03:58:48.183Z,15.10
2023-02-17T04:01:16.191Z,14.00
2023-02-17T04:03:44.392Z,12.20
2023-02-17T04:06:12.627Z,14.75
2023-02-17T04:08:41.308Z,15.55
2023-02-17T04:11:11.428Z,12.88
2023-02-17T04:13:39.992Z,13.63
2023-02-17T04:16:10.233Z,13.73
2023-02-17T04:18:38.739Z,13.25
2023-02-17T04:21:07.519Z,12.63
2023-02-17T04:23:36.186Z,12.88
2023-02-17T04:26:04.792Z,13.10
2023-02-17T04:28:34.398Z,15.10
2023-02-17T04:31:02.598Z,12.90
2023-02-17T04:33:30.866Z,12.45
2023-02-17T04:36:00.334Z,13.93
2023-02-17T04:38:28.832Z,14.95
2023-02-17T04:40:58.350Z,14.50
2023-02-17T04:43:27.693Z,15.85
2023-02-17T04:45:57.348Z,14.07
2023-02-17T04:48:25.728Z,15.73
2023-02-17T04:50:53.745Z,11.80
2023-02-17T04:53:21.855Z,13.90
2023-02-17T04:55:51.291Z,12.95
2023-02-17T04:58:20.237Z,12.43
2023-02-17T05:00:48.890Z,15.02
2023-02-17T05:03:18.412Z,14.45
2023-02-17T05:05:46.617Z,14.93
2023-02-17T05:08:14.518Z,12.95
2023-02-17T05:10:42.416Z,13.20
2023-02-17T05:13:10.458Z,13.57
2023-02-17T05:15:38.673Z,14.15
2023-02-17T05:18:06.677Z,11.18
2023-02-17T05:20:38.338Z,14.35
2023-02-17T05:23:06.228Z,14.40
2023-02-17T05:25:34.205Z,16.05
2023-02-17T05:28:02.398Z,14.70
2023-02-17T05:30:30.358Z,22.70
2023-02-17T05:32:58.289Z,11.55
2023-02-17T05:35:26.165Z,14.07
2023-02-17T05:37:55.406Z,13.02
2023-02-17T05:40:23.361Z,17.27
2023-02-17T05:42:51.247Z,13.98
2023-02-17T05:45:19.190Z,12.68
2023-02-17T05:47:47.127Z,15.98
2023-02-17T05:50:15.032Z,15.27
2023-02-17T05:52:42.926Z,15.70
2023-02-17T05:55:12.112Z,14.05
2023-02-17T05:57:40.039Z,17.38
2023-02-17T06:00:09.368Z,12.77
2023-02-17T06:02:40.329Z,14.65
2023-02-17T06:05:08.856Z,12.85
2023-02-17T06:07:36.809Z,15.40
2023-02-17T06:10:05.057Z,14.38
2023-02-17T06:12:34.347Z,14.25
2023-02-17T06:15:02.672Z,13.55
2023-02-17T06:17:31.243Z,13.38
2023-02-17T06:19:59.139Z,14.07
2023-02-17T06:22:27.167Z,15.73
2023-02-17T06:24:55.149Z,12.40
2023-02-17T06:27:23.193Z,13.60
2023-02-17T06:29:52.824Z,12.73
2023-02-17T06:32:20.795Z,16.77
2023-02-17T06:34:48.893Z,14.27
2023-02-17T06:37:16.804Z,18.08
2023-02-17T06:39:44.713Z,14.25
2023-02-17T06:42:12.649Z,15.82
2023-02-17T06:44:40.566Z,15.25
2023-02-17T06:47:09.933Z,13.27
2023-02-17T06:49:39.875Z,14.75
2023-02-17T06:52:08.778Z,13.95
2023-02-17T06:54:36.686Z,16.02
2023-02-17T06:57:04.802Z,15.68
2023-02-17T06:59:32.926Z,16.77
2023-02-17T07:02:02.406Z,17.83
2023-02-17T07:04:32.053Z,17.42
2023-02-17T07:07:00.029Z,16.60
2023-02-17T07:09:28.084Z,18.60
2023-02-17T07:11:57.419Z,16.05
2023-02-17T07:14:25.540Z,17.65
2023-02-17T07:16:53.842Z,14.50
2023-02-17T07:19:21.789Z,16.58
2023-02-17T07:21:51.087Z,15.15
2023-02-17T07:24:19.230Z,16.75
2023-02-17T07:26:47.200Z,15.82
2023-02-17T07:29:15.188Z,12.82
2023-02-17T07:31:43.145Z,13.57
2023-02-17T07:34:11.166Z,14.43
2023-02-17T07:36:39.083Z,18.65
2023-02-17T07:39:08.390Z,17.42
2023-02-17T07:41:36.330Z,17.92
2023-02-17T07:44:10.473Z,17.63
2023-02-17T07:46:39.703Z,17.98
2023-02-17T07:49:07.618Z,15.25
2023-02-17T07:51:35.846Z,18.35
2023-02-17T07:54:03.823Z,19.33
2023-02-17T07:56:33.925Z,17.63
2023-02-17T07:59:05.536Z,18.77
2023-02-17T08:01:33.632Z,16.58
2023-02-17T08:04:01.552Z,19.23
2023-02-17T08:06:29.521Z,21.23
2023-02-17T08:09:15.968Z,17.55
2023-02-17T08:12:03.537Z,17.15
2023-02-17T08:14:33.322Z,19.92
2023-02-17T08:17:01.511Z,17.85
2023-02-17T08:19:42.849Z,17.15
2023-02-17T08:22:14.772Z,20.40
2023-02-17T08:24:42.751Z,17.00
2023-02-17T08:27:12.114Z,17.23
2023-02-17T08:29:39.949Z,18.25
2023-02-17T08:32:08.882Z,17.50
2023-02-17T08:34:36.981Z,16.73
2023-02-17T08:37:06.984Z,14.75
2023-02-17T08:39:35.662Z,18.50
2023-02-17T08:42:04.732Z,14.63
2023-02-17T08:44:36.014Z,16.35
2023-02-17T08:47:05.968Z,17.92
2023-02-17T08:49:34.833Z,16.02
2023-02-17T08:52:03.418Z,13.80
2023-02-17T08:54:31.736Z,14.75
2023-02-17T08:56:59.790Z,13.85
2023-02-17T08:59:27.698Z,11.98
2023-02-17T09:01:57.252Z,12.02
2023-02-17T09:04:25.303Z,14.25
2023-02-17T09:06:55.993Z,14.35
2023-02-17T09:09:27.736Z,10.73
2023-02-17T09:11:56.620Z,12.48
2023-02-17T09:14:25.038Z,11.98
2023-02-17T09:16:53.700Z,11.95
2023-02-17T09:19:23.799Z,12.57
2023-02-17T09:21:51.830Z,11.63
2023-02-17T09:24:20.176Z,11.35
2023-02-17T09:26:48.115Z,11.75
2023-02-17T09:29:16.121Z,10.27
2023-02-17T09:31:45.653Z,10.00
2023-02-17T09:34:13.728Z,10.10
2023-02-17T09:36:43.432Z,12.93
2023-02-17T09:39:13.771Z,15.13
2023-02-17T09:41:45.035Z,8.63
2023-02-17T09:44:20.942Z,10.05
2023-02-17T09:47:01.686Z,14.75
2023-02-17T09:49:36.298Z,8.80
2023-02-17T09:52:11.904Z,9.35
2023-02-17T09:54:47.979Z,10.95
2023-02-17T09:57:20.665Z,10.13
2023-02-17T09:59:53.523Z,9.98
2023-02-17T10:02:26.579Z,9.73
2023-02-17T10:04:57.224Z,11.50
2023-02-17T10:07:30.439Z,14.27
2023-02-17T10:10:04.224Z,11.35
2023-02-17T10:12:38.580Z,11.10
2023-02-17T10:15:13.459Z,10.68
2023-02-17T10:17:47.432Z,11.20
2023-02-17T10:20:20.755Z,11.52
2023-02-17T10:25:34.755Z,12.23
2023-02-17T10:28:08.883Z,14.63
2023-02-17T10:30:45.893Z,10.18
2023-02-17T10:33:18.211Z,12.98
2023-02-17T10:35:53.712Z,13.02
2023-02-17T10:38:39.368Z,15.88
2023-02-17T10:41:12.355Z,13.30
2023-02-17T10:43:41.475Z,13.15
2023-02-17T10:46:10.224Z,14.95
2023-02-17T10:48:41.691Z,11.70
2023-02-17T10:51:15.945Z,19.80
2023-02-17T10:53:48.781Z,19.02
2023-02-17T10:56:20.741Z,14.13
2023-02-17T10:58:54.936Z,17.80
2023-02-17T11:01:24.107Z,26.13
2023-02-17T11:04:02.130Z,17.45
2023-02-17T11:06:31.600Z,20.17
2023-02-17T11:09:04.201Z,18.60
2023-02-17T11:11:35.377Z,17.95
2023-02-17T11:14:13.017Z,18.38
2023-02-17T11:16:44.589Z,18.65
2023-02-17T11:19:23.475Z,15.13
2023-02-17T11:21:53.200Z,17.42
2023-02-17T11:24:22.775Z,16.45
2023-02-17T11:26:59.382Z,18.13
2023-02-17T11:29:28.157Z,14.30
2023-02-17T11:31:58.691Z,17.08
2023-02-17T11:34:29.357Z,15.38
2023-02-17T11:37:02.818Z,13.18
2023-02-17T11:39:38.817Z,14.93
2023-02-17T11:42:15.874Z,12.30
2023-02-17T11:44:44.128Z,14.63
2023-02-17T11:47:21.000Z,15.45
2023-02-17T11:50:05.986Z,11.68
2023-02-17T11:52:50.114Z,14.32
2023-02-17T11:55:24.940Z,11.30
2023-02-17T11:58:05.296Z,10.23
2023-02-17T12:00:42.722Z,11.13
2023-02-17T12:03:52.167Z,12.23
2023-02-17T12:06:30.613Z,11.48
2023-02-17T12:09:10.900Z,10.70
2023-02-17T12:11:49.718Z,10.85
2023-02-17T12:14:35.582Z,11.48
2023-02-17T12:17:11.699Z,11.70
2023-02-17T12:19:45.512Z,18.67
2023-02-17T12:22:18.473Z,13.27
2023-02-17T12:25:23.506Z,9.60
2023-02-17T12:28:09.323Z,9.02
2023-02-17T12:30:48.512Z,10.80
2023-02-17T12:33:34.560Z,11.35
2023-02-17T12:36:06.090Z,12.18
2023-02-17T12:38:37.832Z,10.13
2023-02-17T12:41:11.405Z,11.40
2023-02-17T12:43:43.563Z,10.70
2023-02-17T12:46:16.048Z,10.25
2023-02-17T12:48:48.529Z,10.32
2023-02-17T12:51:22.081Z,8.63
2023-02-17T12:53:54.653Z,8.15
2023-02-17T12:56:50.454Z,8.43
2023-02-17T12:59:22.782Z,9.38
2023-02-17T13:01:57.384Z,7.05
2023-02-17T13:04:26.716Z,6.90
2023-02-17T13:07:01.788Z,7.13
2023-02-17T13:09:34.811Z,7.18
2023-02-17T13:12:11.846Z,6.60
2023-02-17T13:14:43.087Z,8.60
2023-02-17T13:17:24.518Z,7.47
2023-02-17T13:20:07.677Z,7.30
2023-02-17T13:22:35.731Z,7.30
2023-02-17T13:25:03.741Z,7.10
2023-02-17T13:27:35.134Z,7.05
2023-02-17T13:30:09.520Z,7.45
2023-02-17T13:32:39.910Z,7.45
2023-02-17T13:35:19.023Z,9.68
2023-02-17T13:37:47.636Z,6.90
2023-02-17T13:40:37.142Z,7.45
2023-02-17T13:43:16.552Z,9.48
2023-02-17T13:45:49.913Z,9.32
2023-02-17T13:48:25.691Z,9.82
2023-02-17T13:50:57.092Z,9.82
2023-02-17T13:53:52.345Z,10.60
2023-02-17T13:56:25.826Z,10.13
2023-02-17T14:01:27.323Z,10.90
2023-02-17T14:03:59.919Z,12.00
2023-02-17T14:06:31.249Z,11.05
2023-02-17T14:08:59.245Z,11.70
2023-02-17T14:11:32.099Z,10.90
2023-02-17T14:14:01.575Z,10.27
2023-02-17T14:16:33.318Z,11.82
2023-02-17T14:19:06.828Z,11.90
2023-02-17T14:21:36.324Z,10.20
2023-02-17T14:24:04.528Z,12.45
2023-02-17T14:26:38.076Z,11.25
2023-02-17T14:29:08.680Z,9.60
2023-02-17T14:31:43.161Z,11.90
2023-02-17T14:34:25.120Z,11.90
2023-02-17T14:36:56.633Z,10.65
2023-02-17T14:39:24.744Z,10.32
2023-02-17T14:41:52.654Z,9.85
2023-02-17T14:44:20.620Z,10.95
2023-02-17T14:46:50.185Z,8.77
2023-02-17T14:49:18.182Z,11.52
2023-02-17T14:51:46.103Z,9.02
2023-02-17T14:54:16.561Z,9.55
2023-02-17T14:56:47.630Z,10.48
2023-02-17T14:59:15.581Z,10.85
2023-02-17T15:01:43.616Z,9.70
2023-02-17T15:04:12.989Z,10.20
2023-02-17T15:06:43.463Z,10.35
2023-02-17T15:09:14.348Z,11.27
2023-02-17T15:11:45.699Z,9.82
2023-02-17T15:14:15.738Z,11.27
2023-02-17T15:16:44.330Z,8.80
2023-02-17T15:19:14.454Z,12.50
2023-02-17T15:21:47.169Z,8.55
2023-02-17T15:24:17.326Z,9.73
2023-02-17T15:26:45.464Z,10.98
2023-02-17T15:29:17.543Z,10.30
2023-02-17T15:31:45.980Z,8.80
2023-02-17T15:34:17.520Z,12.23
2023-02-17T15:36:46.108Z,9.07
2023-02-17T15:39:15.562Z,8.85
2023-02-17T15:41:45.175Z,10.40
2023-02-17T15:44:16.795Z,9.30
2023-02-17T15:46:46.108Z,8.77
2023-02-17T15:49:15.594Z,8.30
2023-02-17T15:51:43.654Z,7.18
2023-02-17T15:54:11.574Z,6.05
2023-02-17T15:56:45.016Z,7.05
2023-02-17T16:01:41.700Z,8.95
2023-02-17T16:04:11.183Z,9.15
2023-02-17T16:06:40.453Z,6.82
2023-02-17T16:09:09.221Z,7.07
2023-02-17T16:11:43.184Z,8.43
2023-02-17T16:14:20.183Z,8.15
2023-02-17T16:16:48.369Z,8.15
2023-02-17T16:19:16.376Z,9.05
2023-02-17T16:21:45.809Z,9.48
2023-02-17T16:24:13.876Z,9.30
2023-02-17T16:26:45.213Z,8.43
2023-02-17T16:29:16.275Z,9.38
2023-02-17T16:31:44.543Z,7.53
2023-02-17T16:34:15.744Z,8.23
2023-02-17T16:36:45.549Z,9.90
2023-02-17T16:39:15.750Z,7.70
2023-02-17T16:41:44.216Z,6.82
2023-02-17T16:44:14.265Z,7.78
2023-02-17T16:46:48.066Z,9.07
2023-02-17T16:49:24.514Z,7.90
2023-02-17T16:51:54.033Z,8.95
2023-02-17T16:54:22.018Z,7.78
2023-02-17T16:56:51.716Z,7.10
2023-02-17T16:59:21.698Z,6.65
2023-02-17T17:01:51.003Z,7.65
2023-02-17T17:04:18.948Z,9.32
2023-02-17T17:06:51.975Z,10.23
2023-02-17T17:09:26.187Z,8.90
2023-02-17T17:11:55.912Z,10.07
2023-02-17T17:14:24.677Z,9.23
2023-02-17T17:16:57.660Z,7.13
2023-02-17T17:19:26.228Z,8.00
2023-02-17T17:21:54.202Z,8.48
2023-02-17T17:24:23.470Z,8.57
2023-02-17T17:26:51.607Z,8.02
2023-02-17T17:29:20.875Z,7.88
2023-02-17T17:31:51.806Z,6.07
2023-02-17T17:34:19.833Z,8.07
2023-02-17T17:36:51.013Z,7.50
2023-02-17T17:39:21.277Z,7.10
2023-02-17T17:41:51.947Z,12.73
2023-02-17T17:44:20.563Z,7.45
2023-02-17T17:46:48.438Z,6.72
2023-02-17T17:49:18.141Z,11.10
2023-02-17T17:51:46.316Z,27.50
2023-02-17T17:54:14.242Z,8.85
2023-02-17T17:56:45.639Z,9.07
2023-02-17T17:59:15.466Z,11.52
2023-02-17T18:01:45.717Z,11.65
2023-02-17T18:04:14.081Z,9.30
2023-02-17T18:06:45.352Z,6.25
2023-02-17T18:09:30.825Z,6.90
2023-02-17T18:12:02.418Z,9.80
2023-02-17T18:14:32.979Z,5.90
2023-02-17T18:17:01.036Z,4.05
2023-02-17T18:19:39.988Z,6.45
2023-02-17T18:22:08.548Z,7.53
2023-02-17T18:24:38.136Z,6.85
2023-02-17T18:27:08.382Z,5.60
2023-02-17T18:29:37.719Z,6.70
2023-02-17T18:32:08.797Z,6.05
2023-02-17T18:34:36.827Z,9.80
2023-02-17T18:37:06.213Z,7.13
2023-02-17T18:39:35.482Z,6.55
2023-02-17T18:42:05.284Z,6.57
2023-02-17T18:44:33.993Z,5.28
2023-02-17T18:47:05.788Z,6.03
2023-02-17T18:49:33.741Z,6.07
2023-02-17T18:52:01.836Z,7.43
2023-02-17T18:54:29.811Z,5.47
2023-02-17T18:56:57.833Z,4.47
2023-02-17T18:59:25.805Z,4.80
2023-02-17T19:01:53.959Z,3.60
2023-02-17T19:04:23.280Z,5.43
2023-02-17T19:06:51.206Z,5.70
2023-02-17T19:09:19.201Z,5.75
2023-02-17T19:11:47.131Z,6.72
2023-02-17T19:14:16.107Z,7.25
2023-02-17T19:16:44.003Z,4.90
2023-02-17T19:19:11.898Z,9.75
2023-02-17T19:21:41.206Z,4.13
2023-02-17T19:24:10.672Z,3.40
2023-02-17T19:26:38.601Z,5.57
2023-02-17T19:29:06.490Z,3.28
2023-02-17T19:31:34.467Z,5.00
2023-02-17T19:34:02.451Z,8.77
2023-02-17T19:36:30.323Z,7.72
2023-02-17T19:38:59.657Z,8.50
2023-02-17T19:41:27.640Z,6.45
2023-02-17T19:43:55.517Z,6.20
2023-02-17T19:46:25.584Z,7.32
2023-02-17T19:48:53.552Z,4.00
2023-02-17T19:51:21.593Z,4.78
2023-02-17T19:53:49.664Z,3.20
2023-02-17T19:56:21.412Z,3.38
2023-02-17T19:58:49.850Z,7.22
2023-02-17T20:01:20.858Z,7.90
2023-02-17T20:03:49.159Z,5.80
2023-02-17T20:06:21.390Z,5.25
2023-02-17T20:08:54.242Z,3.35
2023-02-17T20:11:23.650Z,5.07
2023-02-17T20:13:51.618Z,4.40
2023-02-17T20:16:19.928Z,1.85
2023-02-17T20:18:49.797Z,3.65
2023-02-17T20:21:19.708Z,4.00
2023-02-17T20:23:47.968Z,7.45
2023-02-17T20:26:18.108Z,11.23
2023-02-17T20:28:47.499Z,5.22
2023-02-17T20:31:16.225Z,2.78
2023-02-17T20:33:44.310Z,5.72
2023-02-17T20:36:12.719Z,5.43
2023-02-17T20:38:41.241Z,2.70
2023-02-17T20:41:10.312Z,3.33
2023-02-17T20:43:38.923Z,7.93
2023-02-17T20:46:08.859Z,5.70
2023-02-17T20:48:36.923Z,3.78
2023-02-17T20:51:05.761Z,3.92
2023-02-17T20:53:33.748Z,6.95
2023-02-17T20:56:02.112Z,6.72
2023-02-17T20:58:30.103Z,5.13
2023-02-17T21:00:58.632Z,4.18
2023-02-17T21:03:28.235Z,5.70
2023-02-17T21:05:56.326Z,7.80
2023-02-17T21:08:24.348Z,5.28
2023-02-17T21:10:53.343Z,7.38
2023-02-17T21:13:22.746Z,6.35
2023-02-17T21:15:50.895Z,5.70
2023-02-17T21:18:18.835Z,7.63
2023-02-17T21:20:48.091Z,5.60
2023-02-17T21:23:16.004Z,5.30
2023-02-17T21:25:46.331Z,4.45
2023-02-17T21:28:17.191Z,8.63
2023-02-17T21:30:47.100Z,5.32
2023-02-17T21:33:15.157Z,5.95
2023-02-17T21:35:43.037Z,6.20
2023-02-17T21:38:15.393Z,5.25
2023-02-17T21:40:43.699Z,3.22
2023-02-17T21:43:30.106Z,8.65
2023-02-17T21:45:58.068Z,4.00
2023-02-17T21:48:26.117Z,6.55
2023-02-17T21:50:54.060Z,3.53
2023-02-17T21:53:23.326Z,9.23
2023-02-17T21:55:51.251Z,10.52
2023-02-17T21:58:19.247Z,3.08
2023-02-17T22:00:49.169Z,4.88
2023-02-17T22:03:17.045Z,5.05
2023-02-17T22:05:44.972Z,3.40
2023-02-17T22:08:12.984Z,6.22
2023-02-17T22:10:43.139Z,3.20
2023-02-17T22:13:11.462Z,5.13
2023-02-17T22:15:39.585Z,4.45
2023-02-17T22:18:07.450Z,6.20
2023-02-17T22:20:35.614Z,3.30
2023-02-17T22:23:03.615Z,2.25
2023-02-17T22:25:31.625Z,2.03
2023-02-17T22:28:00.852Z,4.55
2023-02-17T22:30:28.829Z,4.55
2023-02-17T22:32:56.931Z,2.45
2023-02-17T22:35:25.022Z,4.72
2023-02-17T22:37:52.926Z,1.67
2023-02-17T22:40:20.841Z,5.05
2023-02-17T22:42:48.810Z,4.30
2023-02-17T22:45:18.230Z,4.28
2023-02-17T22:47:46.125Z,2.58
2023-02-17T22:50:14.117Z,3.28
2023-02-17T22:52:42.002Z,3.15
2023-02-17T22:55:10.138Z,4.57
2023-02-17T22:57:38.117Z,3.15
2023-02-17T23:00:07.779Z,2.53
2023-02-17T23:02:37.426Z,3.17
2023-02-17T23:05:06.123Z,6.65
2023-02-17T23:07:34.047Z,8.60
2023-02-17T23:10:01.950Z,4.70
2023-02-17T23:12:30.654Z,3.70
2023-02-17T23:14:58.637Z,5.63
2023-02-17T23:17:26.555Z,4.28
2023-02-17T23:19:55.766Z,3.15
2023-02-17T23:22:23.758Z,3.00
2023-02-17T23:24:51.624Z,5.88
2023-02-17T23:27:19.625Z,10.52
2023-02-17T23:29:47.564Z,1.92
2023-02-17T23:32:15.446Z,2.53
2023-02-17T23:34:43.354Z,2.58
2023-02-17T23:37:12.629Z,6.22
2023-02-17T23:39:40.730Z,4.75
2023-02-17T23:42:08.674Z,3.17
2023-02-17T23:44:36.585Z,4.28
2023-02-17T23:47:05.115Z,6.47
2023-02-17T23:49:33.082Z,2.00
2023-02-17T23:52:01.610Z,3.80
2023-02-17T23:54:31.014Z,4.40
2023-02-17T23:56:58.982Z,3.33
2023-02-17T23:59:26.985Z,4.85
